Delaware County Johnson Field Muncie US
ICAO: KMIE
IATA: MIE
Category: Medium
Scheduled Services: No

Elevation: 937 ft
TransAlt. 18000 ft.

Airport Communications:
ASOS:114.4
ATIS:133.25
INDIANAPOLIS CNTR:120.65
CTAF:120.1
MUNCIE GND:121.9
TERRE HAUTE RDO:114.4
MUNCIE TWR:120.1
UNICOM:122.95

KMIE Zoom In..

Runways:

(A) RW 02 length 5198 ft width 100 ft
---- / hdg 25

(B) RW 14 length 6500 ft width 150 ft
---- / hdg 139

(C) RW 20 length 5198 ft width 100 ft
---- / hdg 205

(D) RW 32 length 6500 ft width 150 ft
ILS 109.10 / hdg 319

Location; KMIE
Day. 24 / Time. 01.53 Zulu
* Altimeter: 30.05
* Temperature: 00° c. 32°f.
* Wind from: 310° Speed 14 kn with Gusts up to 20 kn.
Dewpoint: -03° c.
Visibility: 9 Statute Miles.
Clouds: Overcast 1600 ft.

KMIE 240153Z 31014G20KT 9SM OVC016 00/M03 A3005 RMK AO2 SNB36E44 SLP181 P0001 T00001033


Wind From 310°
Speed 14 kn.

YouTube Music Video
 
jpsmedia.com for Web Design  worldairports.se 2018   terms of use